Aviation Digital Data Service (ADDS)

Output produced by METARs form (1900 UTC 18 April 2019)
found at http://www.aviationweather.gov/metar/data/
 
METAR text: NSFA 181800Z 17004KT 9999 FEW022 BKN290 24/23 Q1010 RMK NIL
Conditions at: NSFA (FALEOLO INT/APIA, WS) observed 1800 UTC 18 April 2019
Temperature: 24.0°C (75°F)
Dewpoint: 23.0°C (73°F) [RH = 94%]
Pressure (altimeter): 29.82 inches Hg (1010.0 mb)
Winds: from the S (170 degrees) at 5 MPH (4 knots; 2.1 m/s)
Visibility: 6 or more miles (10+ km)
Ceiling: 29000 feet AGL
Clouds: few clouds at 2200 feet AGL
broken clouds at 29000 feet AGL
Weather: no significant weather observed at this time

METAR text: NSFA 181700Z 17003KT 9999 FEW022 BKN290 23/23 Q1010 NOSIG
Conditions at: NSFA (FALEOLO INT/APIA, WS) observed 1700 UTC 18 April 2019
Temperature: 23.0°C (73°F)
Dewpoint: 23.0°C (73°F) [RH = 100%]
Pressure (altimeter): 29.82 inches Hg (1010.0 mb)
Winds: from the S (170 degrees) at 3 MPH (3 knots; 1.5 m/s)
Visibility: 6 or more miles (10+ km)
Ceiling: 29000 feet AGL
Clouds: few clouds at 2200 feet AGL
broken clouds at 29000 feet AGL
Weather: no significant weather observed at this time

METAR text: NSFA 181600Z 15003KT 9999 FEW028 24/23 Q1009 NOSIG
Conditions at: NSFA (FALEOLO INT/APIA, WS) observed 1600 UTC 18 April 2019
Temperature: 24.0°C (75°F)
Dewpoint: 23.0°C (73°F) [RH = 94%]
Pressure (altimeter): 29.79 inches Hg (1009.0 mb)
Winds: from the SSE (150 degrees) at 3 MPH (3 knots; 1.5 m/s)
Visibility: 6 or more miles (10+ km)
Ceiling: at least 12,000 feet AGL
Clouds: few clouds at 2800 feet AGL
Weather: no significant weather observed at this time

METAR text: NSFA 181500Z 12004KT 9999 FEW028 24/23 Q1010 NOSIG
Conditions at: NSFA (FALEOLO INT/APIA, WS) observed 1500 UTC 18 April 2019
Temperature: 24.0°C (75°F)
Dewpoint: 23.0°C (73°F) [RH = 94%]
Pressure (altimeter): 29.82 inches Hg (1010.0 mb)
Winds: from the ESE (120 degrees) at 5 MPH (4 knots; 2.1 m/s)
Visibility: 6 or more miles (10+ km)
Ceiling: at least 12,000 feet AGL
Clouds: few clouds at 2800 feet AGL
Weather: no significant weather observed at this time

METAR text: NSFA 181400Z 15003KT 9999 FEW030 24/23 Q1010 NOSIG
Conditions at: NSFA (FALEOLO INT/APIA, WS) observed 1400 UTC 18 April 2019
Temperature: 24.0°C (75°F)
Dewpoint: 23.0°C (73°F) [RH = 94%]
Pressure (altimeter): 29.82 inches Hg (1010.0 mb)
Winds: from the SSE (150 degrees) at 3 MPH (3 knots; 1.5 m/s)
Visibility: 6 or more miles (10+ km)
Ceiling: at least 12,000 feet AGL
Clouds: few clouds at 3000 feet AGL
Weather: no significant weather observed at this time

METAR text: NSFA 181300Z 17004KT 9999 FEW028 SCT300 25/23 Q1011 NOSIG
Conditions at: NSFA (FALEOLO INT/APIA, WS) observed 1300 UTC 18 April 2019
Temperature: 25.0°C (77°F)
Dewpoint: 23.0°C (73°F) [RH = 89%]
Pressure (altimeter): 29.85 inches Hg (1011.0 mb)
Winds: from the S (170 degrees) at 5 MPH (4 knots; 2.1 m/s)
Visibility: 6 or more miles (10+ km)
Ceiling: at least 12,000 feet AGL
Clouds: few clouds at 2800 feet AGL
scattered clouds at 30000 feet AGL
Weather: no significant weather observed at this time

METAR text: NSFA 181200Z 16003KT 9999 FEW026 SCT300 25/24 Q1011 NOSIG
Conditions at: NSFA (FALEOLO INT/APIA, WS) observed 1200 UTC 18 April 2019
Temperature: 25.0°C (77°F)
Dewpoint: 24.0°C (75°F) [RH = 94%]
Pressure (altimeter): 29.85 inches Hg (1011.0 mb)
Winds: from the SSE (160 degrees) at 3 MPH (3 knots; 1.5 m/s)
Visibility: 6 or more miles (10+ km)
Ceiling: at least 12,000 feet AGL
Clouds: few clouds at 2600 feet AGL
scattered clouds at 30000 feet AGL
Weather: no significant weather observed at this time

METAR text: NSFA 181000Z 12004KT 9999 FEW026 BKN290 26/25 Q1012 NOSIG
Conditions at: NSFA (FALEOLO INT/APIA, WS) observed 1000 UTC 18 April 2019
Temperature: 26.0°C (79°F)
Dewpoint: 25.0°C (77°F) [RH = 94%]
Pressure (altimeter): 29.88 inches Hg (1012.0 mb)
Winds: from the ESE (120 degrees) at 5 MPH (4 knots; 2.1 m/s)
Visibility: 6 or more miles (10+ km)
Ceiling: 29000 feet AGL
Clouds: few clouds at 2600 feet AGL
broken clouds at 29000 feet AGL
Weather: no significant weather observed at this time

METAR text: NSFA 180900Z 17004KT 9999 FEW024 SCT270 26/25 Q1012 RMK NIL
Conditions at: NSFA (FALEOLO INT/APIA, WS) observed 0900 UTC 18 April 2019
Temperature: 26.0°C (79°F)
Dewpoint: 25.0°C (77°F) [RH = 94%]
Pressure (altimeter): 29.88 inches Hg (1012.0 mb)
Winds: from the S (170 degrees) at 5 MPH (4 knots; 2.1 m/s)
Visibility: 6 or more miles (10+ km)
Ceiling: at least 12,000 feet AGL
Clouds: few clouds at 2400 feet AGL
scattered clouds at 27000 feet AGL
Weather: no significant weather observed at this time

METAR text: NSFA 180800Z 18004KT 9999 FEW020TCU SCT290 26/25 Q1011 RMK TCU TO SE
Conditions at: NSFA (FALEOLO INT/APIA, WS) observed 0800 UTC 18 April 2019
Temperature: 26.0°C (79°F)
Dewpoint: 25.0°C (77°F) [RH = 94%]
Pressure (altimeter): 29.85 inches Hg (1011.0 mb)
Winds: from the S (180 degrees) at 5 MPH (4 knots; 2.1 m/s)
Visibility: 6 or more miles (10+ km)
Ceiling: at least 12,000 feet AGL
Clouds: few clouds at 2000 feet AGL
scattered clouds at 29000 feet AGL
Weather: no significant weather observed at this time

METAR text: NSFA 180700Z 14006KT 9999 FEW025 SCT280 27/25 Q1011 NOSIG
Conditions at: NSFA (FALEOLO INT/APIA, WS) observed 0700 UTC 18 April 2019
Temperature: 27.0°C (81°F)
Dewpoint: 25.0°C (77°F) [RH = 89%]
Pressure (altimeter): 29.85 inches Hg (1011.0 mb)
Winds: from the SE (140 degrees) at 7 MPH (6 knots; 3.1 m/s)
Visibility: 6 or more miles (10+ km)
Ceiling: at least 12,000 feet AGL
Clouds: few clouds at 2500 feet AGL
scattered clouds at 28000 feet AGL
Weather: no significant weather observed at this time

METAR text: NSFA 180600Z 16003KT 9999 FEW025 SCT060 BKN290 27/25 Q1010 RMK NIL
Conditions at: NSFA (FALEOLO INT/APIA, WS) observed 0600 UTC 18 April 2019
Temperature: 27.0°C (81°F)
Dewpoint: 25.0°C (77°F) [RH = 89%]
Pressure (altimeter): 29.82 inches Hg (1010.0 mb)
Winds: from the SSE (160 degrees) at 3 MPH (3 knots; 1.5 m/s)
Visibility: 6 or more miles (10+ km)
Ceiling: 29000 feet AGL
Clouds: few clouds at 2500 feet AGL
scattered clouds at 6000 feet AGL
broken clouds at 29000 feet AGL
Weather: no significant weather observed at this time

METAR text: NSFA 180500Z 19003KT 9999 FEW020 SCT040 BKN290 29/25 Q1010 RMK NIL
Conditions at: NSFA (FALEOLO INT/APIA, WS) observed 0500 UTC 18 April 2019
Temperature: 29.0°C (84°F)
Dewpoint: 25.0°C (77°F) [RH = 79%]
Pressure (altimeter): 29.82 inches Hg (1010.0 mb)
Winds: from the S (190 degrees) at 3 MPH (3 knots; 1.5 m/s)
Visibility: 6 or more miles (10+ km)
Ceiling: 29000 feet AGL
Clouds: few clouds at 2000 feet AGL
scattered clouds at 4000 feet AGL
broken clouds at 29000 feet AGL
Weather: no significant weather observed at this time

METAR text: NSFA 180400Z 11005KT 9999 FEW024 SCT035 BKN190 31/25 Q1009 RMK NIL
Conditions at: NSFA (FALEOLO INT/APIA, WS) observed 0400 UTC 18 April 2019
Temperature: 31.0°C (88°F)
Dewpoint: 25.0°C (77°F) [RH = 71%]
Pressure (altimeter): 29.79 inches Hg (1009.0 mb)
Winds: from the ESE (110 degrees) at 6 MPH (5 knots; 2.6 m/s)
Visibility: 6 or more miles (10+ km)
Ceiling: 19000 feet AGL
Clouds: few clouds at 2400 feet AGL
scattered clouds at 3500 feet AGL
broken clouds at 19000 feet AGL
Weather: no significant weather observed at this time

METAR text: NSFA 180300Z 35005KT 9999 FEW020TCU SCT045 BKN180 32/25 Q1009 RMK TCU TO SE
Conditions at: NSFA (FALEOLO INT/APIA, WS) observed 0300 UTC 18 April 2019
Temperature: 32.0°C (90°F)
Dewpoint: 25.0°C (77°F) [RH = 67%]
Pressure (altimeter): 29.79 inches Hg (1009.0 mb)
Winds: from the N (350 degrees) at 6 MPH (5 knots; 2.6 m/s)
Visibility: 6 or more miles (10+ km)
Ceiling: 18000 feet AGL
Clouds: few clouds at 2000 feet AGL
scattered clouds at 4500 feet AGL
broken clouds at 18000 feet AGL
Weather: no significant weather observed at this time

METAR text: NSFA 180200Z 17006KT 9999 FEW020CB SCT038 BKN160 32/25 Q1009 RMK CB TO WSW
Conditions at: NSFA (FALEOLO INT/APIA, WS) observed 0200 UTC 18 April 2019
Temperature: 32.0°C (90°F)
Dewpoint: 25.0°C (77°F) [RH = 67%]
Pressure (altimeter): 29.79 inches Hg (1009.0 mb)
Winds: from the S (170 degrees) at 7 MPH (6 knots; 3.1 m/s)
Visibility: 6 or more miles (10+ km)
Ceiling: 16000 feet AGL
Clouds: few clouds at 2000 feet AGL
scattered clouds at 3800 feet AGL
broken clouds at 16000 feet AGL
Weather: no significant weather observed at this time

METAR text: NSFA 180100Z 03006KT 9999 2000S FEW020CB BKN040 33/26 Q1010 RMK CB TO S
Conditions at: NSFA (FALEOLO INT/APIA, WS) observed 0100 UTC 18 April 2019
Temperature: 33.0°C (91°F)
Dewpoint: 26.0°C (79°F) [RH = 67%]
Pressure (altimeter): 29.82 inches Hg (1010.0 mb)
Winds: from the NNE (30 degrees) at 7 MPH (6 knots; 3.1 m/s)
Visibility: 6 or more miles (10+ km)
Ceiling: 4000 feet AGL
Clouds: few clouds at 2000 feet AGL
broken clouds at 4000 feet AGL
Weather: no significant weather observed at this time

METAR text: NSFA 180000Z 02010KT 9999 SCT030 32/26 Q1010 NOSIG
Conditions at: NSFA (FALEOLO INT/APIA, WS) observed 0000 UTC 18 April 2019
Temperature: 32.0°C (90°F)
Dewpoint: 26.0°C (79°F) [RH = 71%]
Pressure (altimeter): 29.82 inches Hg (1010.0 mb)
Winds: from the NNE (20 degrees) at 12 MPH (10 knots; 5.1 m/s)
Visibility: 6 or more miles (10+ km)
Ceiling: at least 12,000 feet AGL
Clouds: scattered clouds at 3000 feet AGL
Weather: no significant weather observed at this time

METAR text: NSFA 172300Z 04010KT 010V070 9999 SCT028 32/27 Q1011
Conditions at: NSFA (FALEOLO INT/APIA, WS) observed 2300 UTC 17 April 2019
Temperature: 32.0°C (90°F)
Dewpoint: 27.0°C (81°F) [RH = 75%]
Pressure (altimeter): 29.85 inches Hg (1011.0 mb)
Winds: from the NE (40 degrees) at 12 MPH (10 knots; 5.1 m/s)
Visibility: 6 or more miles (10+ km)
Ceiling: at least 12,000 feet AGL
Clouds: scattered clouds at 2800 feet AGL
Weather: no significant weather observed at this time

METAR text: NSFA 172200Z 02010KT 9999 FEW038 32/26 Q1011 NOSIG
Conditions at: NSFA (FALEOLO INT/APIA, WS) observed 2200 UTC 17 April 2019
Temperature: 32.0°C (90°F)
Dewpoint: 26.0°C (79°F) [RH = 71%]
Pressure (altimeter): 29.85 inches Hg (1011.0 mb)
Winds: from the NNE (20 degrees) at 12 MPH (10 knots; 5.1 m/s)
Visibility: 6 or more miles (10+ km)
Ceiling: at least 12,000 feet AGL
Clouds: few clouds at 3800 feet AGL
Weather: no significant weather observed at this time

METAR text: NSFA 172100Z 08006KT 9999 FEW036 31/25 Q1012 NOSIG
Conditions at: NSFA (FALEOLO INT/APIA, WS) observed 2100 UTC 17 April 2019
Temperature: 31.0°C (88°F)
Dewpoint: 25.0°C (77°F) [RH = 71%]
Pressure (altimeter): 29.88 inches Hg (1012.0 mb)
Winds: from the E (80 degrees) at 7 MPH (6 knots; 3.1 m/s)
Visibility: 6 or more miles (10+ km)
Ceiling: at least 12,000 feet AGL
Clouds: few clouds at 3600 feet AGL
Weather: no significant weather observed at this time

METAR text: NSFA 172000Z 08006KT 9999 FEW034 30/25 Q1012 NOSIG
Conditions at: NSFA (FALEOLO INT/APIA, WS) observed 2000 UTC 17 April 2019
Temperature: 30.0°C (86°F)
Dewpoint: 25.0°C (77°F) [RH = 75%]
Pressure (altimeter): 29.88 inches Hg (1012.0 mb)
Winds: from the E (80 degrees) at 7 MPH (6 knots; 3.1 m/s)
Visibility: 6 or more miles (10+ km)
Ceiling: at least 12,000 feet AGL
Clouds: few clouds at 3400 feet AGL
Weather: no significant weather observed at this time

METAR text: NSFA 171900Z 09005KT 9999 FEW032 28/24 Q1012 NOSIG
Conditions at: NSFA (FALEOLO INT/APIA, WS) observed 1900 UTC 17 April 2019
Temperature: 28.0°C (82°F)
Dewpoint: 24.0°C (75°F) [RH = 79%]
Pressure (altimeter): 29.88 inches Hg (1012.0 mb)
Winds: from the E (90 degrees) at 6 MPH (5 knots; 2.6 m/s)
Visibility: 6 or more miles (10+ km)
Ceiling: at least 12,000 feet AGL
Clouds: few clouds at 3200 feet AGL
Weather: no significant weather observed at this time

METAR text: NSFA 171800Z 11006KT 9999 SCT028 BKN300 25/24 Q1011
Conditions at: NSFA (FALEOLO INT/APIA, WS) observed 1800 UTC 17 April 2019
Temperature: 25.0°C (77°F)
Dewpoint: 24.0°C (75°F) [RH = 94%]
Pressure (altimeter): 29.85 inches Hg (1011.0 mb)
Winds: from the ESE (110 degrees) at 7 MPH (6 knots; 3.1 m/s)
Visibility: 6 or more miles (10+ km)
Ceiling: 30000 feet AGL
Clouds: scattered clouds at 2800 feet AGL
broken clouds at 30000 feet AGL
Weather: no significant weather observed at this time

METAR text: NSFA 171700Z 12004KT 9999 FEW030 SCT150 25/24 Q1010
Conditions at: NSFA (FALEOLO INT/APIA, WS) observed 1700 UTC 17 April 2019
Temperature: 25.0°C (77°F)
Dewpoint: 24.0°C (75°F) [RH = 94%]
Pressure (altimeter): 29.82 inches Hg (1010.0 mb)
Winds: from the ESE (120 degrees) at 5 MPH (4 knots; 2.1 m/s)
Visibility: 6 or more miles (10+ km)
Ceiling: at least 12,000 feet AGL
Clouds: few clouds at 3000 feet AGL
scattered clouds at 15000 feet AGL
Weather: no significant weather observed at this time

METAR text: NSFA 171600Z 11005KT 9999 FEW030 25/24 Q1010
Conditions at: NSFA (FALEOLO INT/APIA, WS) observed 1600 UTC 17 April 2019
Temperature: 25.0°C (77°F)
Dewpoint: 24.0°C (75°F) [RH = 94%]
Pressure (altimeter): 29.82 inches Hg (1010.0 mb)
Winds: from the ESE (110 degrees) at 6 MPH (5 knots; 2.6 m/s)
Visibility: 6 or more miles (10+ km)
Ceiling: at least 12,000 feet AGL
Clouds: few clouds at 3000 feet AGL
Weather: no significant weather observed at this time

METAR text: NSFA 171500Z 13004KT 9999 FEW030 SCT170 25/24 Q1010
Conditions at: NSFA (FALEOLO INT/APIA, WS) observed 1500 UTC 17 April 2019
Temperature: 25.0°C (77°F)
Dewpoint: 24.0°C (75°F) [RH = 94%]
Pressure (altimeter): 29.82 inches Hg (1010.0 mb)
Winds: from the SE (130 degrees) at 5 MPH (4 knots; 2.1 m/s)
Visibility: 6 or more miles (10+ km)
Ceiling: at least 12,000 feet AGL
Clouds: few clouds at 3000 feet AGL
scattered clouds at 17000 feet AGL
Weather: no significant weather observed at this time

METAR text: NSFA 171400Z 15003KT 9999 FEW030 SCT170 25/24 Q1011
Conditions at: NSFA (FALEOLO INT/APIA, WS) observed 1400 UTC 17 April 2019
Temperature: 25.0°C (77°F)
Dewpoint: 24.0°C (75°F) [RH = 94%]
Pressure (altimeter): 29.85 inches Hg (1011.0 mb)
Winds: from the SSE (150 degrees) at 3 MPH (3 knots; 1.5 m/s)
Visibility: 6 or more miles (10+ km)
Ceiling: at least 12,000 feet AGL
Clouds: few clouds at 3000 feet AGL
scattered clouds at 17000 feet AGL
Weather: no significant weather observed at this time

METAR text: NSFA 171300Z 00000KT 9999 SCT030 26/25 Q1011
Conditions at: NSFA (FALEOLO INT/APIA, WS) observed 1300 UTC 17 April 2019
Temperature: 26.0°C (79°F)
Dewpoint: 25.0°C (77°F) [RH = 94%]
Pressure (altimeter): 29.85 inches Hg (1011.0 mb)
Winds: calm
Visibility: 6 or more miles (10+ km)
Ceiling: at least 12,000 feet AGL
Clouds: scattered clouds at 3000 feet AGL
Weather: no significant weather observed at this time

METAR text: NSFA 171200Z 12005KT 9999 SCT030 26/25 Q1012
Conditions at: NSFA (FALEOLO INT/APIA, WS) observed 1200 UTC 17 April 2019
Temperature: 26.0°C (79°F)
Dewpoint: 25.0°C (77°F) [RH = 94%]
Pressure (altimeter): 29.88 inches Hg (1012.0 mb)
Winds: from the ESE (120 degrees) at 6 MPH (5 knots; 2.6 m/s)
Visibility: 6 or more miles (10+ km)
Ceiling: at least 12,000 feet AGL
Clouds: scattered clouds at 3000 feet AGL
Weather: no significant weather observed at this time

METAR text: NSFA 171100Z 11005KT 9999 FEW020 SCT170 26/25 Q1012 RMK NIL
Conditions at: NSFA (FALEOLO INT/APIA, WS) observed 1100 UTC 17 April 2019
Temperature: 26.0°C (79°F)
Dewpoint: 25.0°C (77°F) [RH = 94%]
Pressure (altimeter): 29.88 inches Hg (1012.0 mb)
Winds: from the ESE (110 degrees) at 6 MPH (5 knots; 2.6 m/s)
Visibility: 6 or more miles (10+ km)
Ceiling: at least 12,000 feet AGL
Clouds: few clouds at 2000 feet AGL
scattered clouds at 17000 feet AGL
Weather: no significant weather observed at this time

METAR text: NSFA 171000Z 00000KT 9999 FEW020 SCT180 26/25 Q1013 NOSIG
Conditions at: NSFA (FALEOLO INT/APIA, WS) observed 1000 UTC 17 April 2019
Temperature: 26.0°C (79°F)
Dewpoint: 25.0°C (77°F) [RH = 94%]
Pressure (altimeter): 29.91 inches Hg (1013.0 mb)
Winds: calm
Visibility: 6 or more miles (10+ km)
Ceiling: at least 12,000 feet AGL
Clouds: few clouds at 2000 feet AGL
scattered clouds at 18000 feet AGL
Weather: no significant weather observed at this time

METAR text: NSFA 170900Z 11004KT 9999 FEW024 SCT048 27/26 Q1013 RMK NIL
Conditions at: NSFA (FALEOLO INT/APIA, WS) observed 0900 UTC 17 April 2019
Temperature: 27.0°C (81°F)
Dewpoint: 26.0°C (79°F) [RH = 94%]
Pressure (altimeter): 29.91 inches Hg (1013.0 mb)
Winds: from the ESE (110 degrees) at 5 MPH (4 knots; 2.1 m/s)
Visibility: 6 or more miles (10+ km)
Ceiling: at least 12,000 feet AGL
Clouds: few clouds at 2400 feet AGL
scattered clouds at 4800 feet AGL
Weather: no significant weather observed at this time

METAR text: NSFA 170800Z 16004KT 9999 FEW018CB SCT190 27/26 Q1013 RMK CB TO NNW AND SW
Conditions at: NSFA (FALEOLO INT/APIA, WS) observed 0800 UTC 17 April 2019
Temperature: 27.0°C (81°F)
Dewpoint: 26.0°C (79°F) [RH = 94%]
Pressure (altimeter): 29.91 inches Hg (1013.0 mb)
Winds: from the SSE (160 degrees) at 5 MPH (4 knots; 2.1 m/s)
Visibility: 6 or more miles (10+ km)
Ceiling: at least 12,000 feet AGL
Clouds: few clouds at 1800 feet AGL
scattered clouds at 19000 feet AGL
Weather: no significant weather observed at this time

Forecast for: NSFA (FALEOLO INT/APIA, WS)
Text: TAF NSFA 181713Z 1818/1918 10008KT 9999 FEW028 SCT100
Forecast period: 1800 UTC 18 April 2019 to 1800 UTC 19 April 2019
Forecast type: FROM: standard forecast or significant change
Winds: from the E (100 degrees) at 9 MPH (8 knots; 4.1 m/s)
Visibility: 6 or more miles 10+ km)
Ceiling: at least 12,000 feet AGL
Clouds: few clouds at 2800 feet AGL
scattered clouds at 10000 feet AGL
Weather: no significant weather forecast for this period
Text: PROB30
Forecast period: 1800 UTC 18 April 2019 to 0000 UTC 20 April 2019
Forecast type: TEMPORARY: The following changes expected for less than half the time period
Visibility: 3 miles (5 km)
Ceiling: 1500 feet AGL
Clouds: broken clouds at 1500 feet AGL
few clouds at 1800 feet AGL
Weather: TSRA  (rain associated with thunderstorm(s))
Text: TEMPO 1818/1924 5000 TSRA BKN015 FEW018CB
Forecast period: 0000 to 1200 UTC 19 April 2019
Forecast type: TEMPORARY: The following changes expected for less than half the time period
Visibility: 3 miles (5 km)
Ceiling: 1500 feet AGL
Clouds: broken clouds at 1500 feet AGL
few clouds at 1800 feet AGL
Weather: TSRA  (rain associated with thunderstorm(s))
Text: PROB40
Forecast period: 1200 to 1800 UTC 19 April 2019
Forecast type: TEMPORARY: The following changes expected for less than half the time period
Visibility: 3 miles (5 km)
Ceiling: 1500 feet AGL
Clouds: broken clouds at 1500 feet AGL
few clouds at 1800 feet AGL
Weather: TSRA  (rain associated with thunderstorm(s))